<?xml version="1.0" encoding="UTF-8" ?>
		<gpx
		 version="1.0"
		 xmlns:xsi="http://www.w3.org/2001/XMLSchema-instance"
		 xmlns="http://www.topografix.com/GPX/1/0"
		 xsi:schemaLocation="http://www.topografix.com/GPX/1/0 http://www.topografix.com/GPX/1/0/gpx.xsd"
		 creator="http://www.openrunner.com">
			<trk>
				<name>OR-7915879--Bosia:Salita dei Campioni - Marco Pantani</name>
			    <trkseg>
	
			<trkpt lat="44.598540" lon="8.135800">
			 <ele>366</ele>
			<time>2017-11-10T16:04:32Z</time>
			</trkpt>
		
			<trkpt lat="44.598510" lon="8.135850">
			 <ele>364</ele>
			<time>2017-11-10T16:06:32Z</time>
			</trkpt>
		
			<trkpt lat="44.598510" lon="8.135850">
			 <ele>364</ele>
			<time>2017-11-10T16:08:32Z</time>
			</trkpt>
		
			<trkpt lat="44.598490" lon="8.135670">
			 <ele>365</ele>
			<time>2017-11-10T16:10:32Z</time>
			</trkpt>
		
			<trkpt lat="44.598480" lon="8.135530">
			 <ele>366</ele>
			<time>2017-11-10T16:12:32Z</time>
			</trkpt>
		
			<trkpt lat="44.598460" lon="8.135420">
			 <ele>367</ele>
			<time>2017-11-10T16:14:32Z</time>
			</trkpt>
		
			<trkpt lat="44.598420" lon="8.135330">
			 <ele>367</ele>
			<time>2017-11-10T16:16:32Z</time>
			</trkpt>
		
			<trkpt lat="44.598350" lon="8.135230">
			 <ele>366</ele>
			<time>2017-11-10T16:18:32Z</time>
			</trkpt>
		
			<trkpt lat="44.598290" lon="8.135180">
			 <ele>366</ele>
			<time>2017-11-10T16:20:32Z</time>
			</trkpt>
		
			<trkpt lat="44.598220" lon="8.135140">
			 <ele>366</ele>
			<time>2017-11-10T16:22:32Z</time>
			</trkpt>
		
			<trkpt lat="44.598160" lon="8.135120">
			 <ele>366</ele>
			<time>2017-11-10T16:24:32Z</time>
			</trkpt>
		
			<trkpt lat="44.598030" lon="8.135070">
			 <ele>366</ele>
			<time>2017-11-10T16:26:32Z</time>
			</trkpt>
		
			<trkpt lat="44.597890" lon="8.135040">
			 <ele>366</ele>
			<time>2017-11-10T16:28:32Z</time>
			</trkpt>
		
			<trkpt lat="44.597760" lon="8.135000">
			 <ele>366</ele>
			<time>2017-11-10T16:30:32Z</time>
			</trkpt>
		
			<trkpt lat="44.597550" lon="8.134890">
			 <ele>368</ele>
			<time>2017-11-10T16:32:32Z</time>
			</trkpt>
		
			<trkpt lat="44.597090" lon="8.134620">
			 <ele>370</ele>
			<time>2017-11-10T16:34:32Z</time>
			</trkpt>
		
			<trkpt lat="44.596930" lon="8.134510">
			 <ele>371</ele>
			<time>2017-11-10T16:36:32Z</time>
			</trkpt>
		
			<trkpt lat="44.596910" lon="8.134470">
			 <ele>372</ele>
			<time>2017-11-10T16:38:32Z</time>
			</trkpt>
		
			<trkpt lat="44.596900" lon="8.134450">
			 <ele>372</ele>
			<time>2017-11-10T16:40:32Z</time>
			</trkpt>
		
			<trkpt lat="44.596900" lon="8.134420">
			 <ele>373</ele>
			<time>2017-11-10T16:42:32Z</time>
			</trkpt>
		
			<trkpt lat="44.596910" lon="8.134400">
			 <ele>373</ele>
			<time>2017-11-10T16:44:32Z</time>
			</trkpt>
		
			<trkpt lat="44.596930" lon="8.134380">
			 <ele>374</ele>
			<time>2017-11-10T16:46:32Z</time>
			</trkpt>
		
			<trkpt lat="44.596950" lon="8.134360">
			 <ele>375</ele>
			<time>2017-11-10T16:48:32Z</time>
			</trkpt>
		
			<trkpt lat="44.596980" lon="8.134360">
			 <ele>376</ele>
			<time>2017-11-10T16:50:32Z</time>
			</trkpt>
		
			<trkpt lat="44.597020" lon="8.134370">
			 <ele>376</ele>
			<time>2017-11-10T16:52:32Z</time>
			</trkpt>
		
			<trkpt lat="44.597050" lon="8.134380">
			 <ele>376</ele>
			<time>2017-11-10T16:54:32Z</time>
			</trkpt>
		
			<trkpt lat="44.597160" lon="8.134440">
			 <ele>376</ele>
			<time>2017-11-10T16:56:32Z</time>
			</trkpt>
		
			<trkpt lat="44.597190" lon="8.134450">
			 <ele>377</ele>
			<time>2017-11-10T16:58:32Z</time>
			</trkpt>
		
			<trkpt lat="44.597230" lon="8.134460">
			 <ele>377</ele>
			<time>2017-11-10T17:00:32Z</time>
			</trkpt>
		
			<trkpt lat="44.597250" lon="8.134450">
			 <ele>378</ele>
			<time>2017-11-10T17:02:32Z</time>
			</trkpt>
		
			<trkpt lat="44.597270" lon="8.134440">
			 <ele>378</ele>
			<time>2017-11-10T17:04:32Z</time>
			</trkpt>
		
			<trkpt lat="44.597280" lon="8.134420">
			 <ele>379</ele>
			<time>2017-11-10T17:06:32Z</time>
			</trkpt>
		
			<trkpt lat="44.597290" lon="8.134390">
			 <ele>380</ele>
			<time>2017-11-10T17:08:32Z</time>
			</trkpt>
		
			<trkpt lat="44.597280" lon="8.134350">
			 <ele>381</ele>
			<time>2017-11-10T17:10:32Z</time>
			</trkpt>
		
			<trkpt lat="44.597260" lon="8.134320">
			 <ele>381</ele>
			<time>2017-11-10T17:12:32Z</time>
			</trkpt>
		
			<trkpt lat="44.597230" lon="8.134300">
			 <ele>381</ele>
			<time>2017-11-10T17:14:32Z</time>
			</trkpt>
		
			<trkpt lat="44.597190" lon="8.134270">
			 <ele>382</ele>
			<time>2017-11-10T17:16:32Z</time>
			</trkpt>
		
			<trkpt lat="44.597030" lon="8.134220">
			 <ele>380</ele>
			<time>2017-11-10T17:18:32Z</time>
			</trkpt>
		
			<trkpt lat="44.596950" lon="8.134200">
			 <ele>379</ele>
			<time>2017-11-10T17:20:32Z</time>
			</trkpt>
		
			<trkpt lat="44.596890" lon="8.134150">
			 <ele>380</ele>
			<time>2017-11-10T17:22:32Z</time>
			</trkpt>
		
			<trkpt lat="44.596740" lon="8.133960">
			 <ele>383</ele>
			<time>2017-11-10T17:24:32Z</time>
			</trkpt>
		
			<trkpt lat="44.596700" lon="8.133890">
			 <ele>384</ele>
			<time>2017-11-10T17:26:32Z</time>
			</trkpt>
		
			<trkpt lat="44.596660" lon="8.133850">
			 <ele>384</ele>
			<time>2017-11-10T17:28:32Z</time>
			</trkpt>
		
			<trkpt lat="44.596630" lon="8.133820">
			 <ele>385</ele>
			<time>2017-11-10T17:30:32Z</time>
			</trkpt>
		
			<trkpt lat="44.596600" lon="8.133800">
			 <ele>385</ele>
			<time>2017-11-10T17:32:32Z</time>
			</trkpt>
		
			<trkpt lat="44.596570" lon="8.133780">
			 <ele>385</ele>
			<time>2017-11-10T17:34:32Z</time>
			</trkpt>
		
			<trkpt lat="44.596540" lon="8.133750">
			 <ele>386</ele>
			<time>2017-11-10T17:36:32Z</time>
			</trkpt>
		
			<trkpt lat="44.596510" lon="8.133730">
			 <ele>386</ele>
			<time>2017-11-10T17:38:32Z</time>
			</trkpt>
		
			<trkpt lat="44.596490" lon="8.133710">
			 <ele>386</ele>
			<time>2017-11-10T17:40:32Z</time>
			</trkpt>
		
			<trkpt lat="44.596470" lon="8.133690">
			 <ele>387</ele>
			<time>2017-11-10T17:42:32Z</time>
			</trkpt>
		
			<trkpt lat="44.596470" lon="8.133650">
			 <ele>388</ele>
			<time>2017-11-10T17:44:32Z</time>
			</trkpt>
		
			<trkpt lat="44.596470" lon="8.133630">
			 <ele>388</ele>
			<time>2017-11-10T17:46:32Z</time>
			</trkpt>
		
			<trkpt lat="44.596480" lon="8.133610">
			 <ele>389</ele>
			<time>2017-11-10T17:48:32Z</time>
			</trkpt>
		
			<trkpt lat="44.596480" lon="8.133600">
			 <ele>389</ele>
			<time>2017-11-10T17:50:32Z</time>
			</trkpt>
		
			<trkpt lat="44.596500" lon="8.133580">
			 <ele>390</ele>
			<time>2017-11-10T17:52:32Z</time>
			</trkpt>
		
			<trkpt lat="44.596540" lon="8.133580">
			 <ele>391</ele>
			<time>2017-11-10T17:54:32Z</time>
			</trkpt>
		
			<trkpt lat="44.596600" lon="8.133590">
			 <ele>391</ele>
			<time>2017-11-10T17:56:32Z</time>
			</trkpt>
		
			<trkpt lat="44.596710" lon="8.133590">
			 <ele>393</ele>
			<time>2017-11-10T17:58:32Z</time>
			</trkpt>
		
			<trkpt lat="44.597170" lon="8.133700">
			 <ele>399</ele>
			<time>2017-11-10T18:00:32Z</time>
			</trkpt>
		
			<trkpt lat="44.597260" lon="8.133730">
			 <ele>400</ele>
			<time>2017-11-10T18:02:32Z</time>
			</trkpt>
		
			<trkpt lat="44.597450" lon="8.133780">
			 <ele>402</ele>
			<time>2017-11-10T18:04:32Z</time>
			</trkpt>
		
			<trkpt lat="44.597490" lon="8.133790">
			 <ele>402</ele>
			<time>2017-11-10T18:06:32Z</time>
			</trkpt>
		
			<trkpt lat="44.597660" lon="8.133790">
			 <ele>403</ele>
			<time>2017-11-10T18:08:32Z</time>
			</trkpt>
		
			<trkpt lat="44.597830" lon="8.133810">
			 <ele>402</ele>
			<time>2017-11-10T18:10:32Z</time>
			</trkpt>
		
			<trkpt lat="44.597910" lon="8.133860">
			 <ele>401</ele>
			<time>2017-11-10T18:12:32Z</time>
			</trkpt>
		
			<trkpt lat="44.598000" lon="8.133940">
			 <ele>398</ele>
			<time>2017-11-10T18:14:32Z</time>
			</trkpt>
		
			<trkpt lat="44.598040" lon="8.133980">
			 <ele>397</ele>
			<time>2017-11-10T18:16:32Z</time>
			</trkpt>
		
			<trkpt lat="44.598070" lon="8.134000">
			 <ele>396</ele>
			<time>2017-11-10T18:18:32Z</time>
			</trkpt>
		
			<trkpt lat="44.598090" lon="8.134010">
			 <ele>396</ele>
			<time>2017-11-10T18:20:32Z</time>
			</trkpt>
		
			<trkpt lat="44.598100" lon="8.134010">
			 <ele>396</ele>
			<time>2017-11-10T18:22:32Z</time>
			</trkpt>
		
			<trkpt lat="44.598110" lon="8.134000">
			 <ele>396</ele>
			<time>2017-11-10T18:24:32Z</time>
			</trkpt>
		
			<trkpt lat="44.598130" lon="8.133990">
			 <ele>397</ele>
			<time>2017-11-10T18:26:32Z</time>
			</trkpt>
		
			<trkpt lat="44.598150" lon="8.133980">
			 <ele>397</ele>
			<time>2017-11-10T18:28:32Z</time>
			</trkpt>
		
			<trkpt lat="44.598170" lon="8.133970">
			 <ele>397</ele>
			<time>2017-11-10T18:30:32Z</time>
			</trkpt>
		
			<trkpt lat="44.598170" lon="8.133960">
			 <ele>398</ele>
			<time>2017-11-10T18:32:32Z</time>
			</trkpt>
		
			<trkpt lat="44.598170" lon="8.133950">
			 <ele>398</ele>
			<time>2017-11-10T18:34:32Z</time>
			</trkpt>
		
			<trkpt lat="44.598150" lon="8.133920">
			 <ele>399</ele>
			<time>2017-11-10T18:36:32Z</time>
			</trkpt>
		
			<trkpt lat="44.598030" lon="8.133770">
			 <ele>404</ele>
			<time>2017-11-10T18:38:32Z</time>
			</trkpt>
		
			<trkpt lat="44.597830" lon="8.133550">
			 <ele>411</ele>
			<time>2017-11-10T18:40:32Z</time>
			</trkpt>
		
			<trkpt lat="44.597740" lon="8.133510">
			 <ele>412</ele>
			<time>2017-11-10T18:42:32Z</time>
			</trkpt>
		
			<trkpt lat="44.597630" lon="8.133500">
			 <ele>413</ele>
			<time>2017-11-10T18:44:32Z</time>
			</trkpt>
		
			<trkpt lat="44.597510" lon="8.133490">
			 <ele>413</ele>
			<time>2017-11-10T18:46:32Z</time>
			</trkpt>
		
			<trkpt lat="44.597500" lon="8.133480">
			 <ele>413</ele>
			<time>2017-11-10T18:48:32Z</time>
			</trkpt>
		
			<trkpt lat="44.597490" lon="8.133470">
			 <ele>413</ele>
			<time>2017-11-10T18:50:32Z</time>
			</trkpt>
		
			<trkpt lat="44.597490" lon="8.133460">
			 <ele>414</ele>
			<time>2017-11-10T18:52:32Z</time>
			</trkpt>
		
			<trkpt lat="44.597490" lon="8.133430">
			 <ele>415</ele>
			<time>2017-11-10T18:54:32Z</time>
			</trkpt>
		
			<trkpt lat="44.597490" lon="8.133410">
			 <ele>415</ele>
			<time>2017-11-10T18:56:32Z</time>
			</trkpt>
		
			<trkpt lat="44.597500" lon="8.133400">
			 <ele>416</ele>
			<time>2017-11-10T18:58:32Z</time>
			</trkpt>
		
			<trkpt lat="44.597510" lon="8.133390">
			 <ele>416</ele>
			<time>2017-11-10T19:00:32Z</time>
			</trkpt>
		
			<trkpt lat="44.597530" lon="8.133380">
			 <ele>416</ele>
			<time>2017-11-10T19:02:32Z</time>
			</trkpt>
		
			<trkpt lat="44.597560" lon="8.133370">
			 <ele>417</ele>
			<time>2017-11-10T19:04:32Z</time>
			</trkpt>
		
			<trkpt lat="44.597600" lon="8.133360">
			 <ele>417</ele>
			<time>2017-11-10T19:06:32Z</time>
			</trkpt>
		
			<trkpt lat="44.597760" lon="8.133370">
			 <ele>417</ele>
			<time>2017-11-10T19:08:32Z</time>
			</trkpt>
		
			<trkpt lat="44.597900" lon="8.133390">
			 <ele>417</ele>
			<time>2017-11-10T19:10:32Z</time>
			</trkpt>
		
			<trkpt lat="44.597980" lon="8.133410">
			 <ele>416</ele>
			<time>2017-11-10T19:12:32Z</time>
			</trkpt>
		
			<trkpt lat="44.598040" lon="8.133440">
			 <ele>415</ele>
			<time>2017-11-10T19:14:32Z</time>
			</trkpt>
		
			<trkpt lat="44.598110" lon="8.133460">
			 <ele>414</ele>
			<time>2017-11-10T19:16:32Z</time>
			</trkpt>
		
			<trkpt lat="44.598150" lon="8.133490">
			 <ele>414</ele>
			<time>2017-11-10T19:18:32Z</time>
			</trkpt>
		
			<trkpt lat="44.598160" lon="8.133490">
			 <ele>414</ele>
			<time>2017-11-10T19:20:32Z</time>
			</trkpt>
		
			<trkpt lat="44.598170" lon="8.133490">
			 <ele>414</ele>
			<time>2017-11-10T19:22:32Z</time>
			</trkpt>
		
			<trkpt lat="44.598180" lon="8.133490">
			 <ele>414</ele>
			<time>2017-11-10T19:24:32Z</time>
			</trkpt>
		
			<trkpt lat="44.598200" lon="8.133470">
			 <ele>414</ele>
			<time>2017-11-10T19:26:32Z</time>
			</trkpt>
		
			<trkpt lat="44.598210" lon="8.133440">
			 <ele>415</ele>
			<time>2017-11-10T19:28:32Z</time>
			</trkpt>
		
			<trkpt lat="44.598210" lon="8.133420">
			 <ele>416</ele>
			<time>2017-11-10T19:30:32Z</time>
			</trkpt>
		
			<trkpt lat="44.598200" lon="8.133390">
			 <ele>417</ele>
			<time>2017-11-10T19:32:32Z</time>
			</trkpt>
		
			<trkpt lat="44.598190" lon="8.133380">
			 <ele>417</ele>
			<time>2017-11-10T19:34:32Z</time>
			</trkpt>
		
			<trkpt lat="44.598160" lon="8.133370">
			 <ele>418</ele>
			<time>2017-11-10T19:36:32Z</time>
			</trkpt>
		
			<trkpt lat="44.598120" lon="8.133340">
			 <ele>419</ele>
			<time>2017-11-10T19:38:32Z</time>
			</trkpt>
		
			<trkpt lat="44.598040" lon="8.133270">
			 <ele>421</ele>
			<time>2017-11-10T19:40:32Z</time>
			</trkpt>
		
			<trkpt lat="44.597930" lon="8.133180">
			 <ele>424</ele>
			<time>2017-11-10T19:42:32Z</time>
			</trkpt>
		
			<trkpt lat="44.597850" lon="8.133130">
			 <ele>425</ele>
			<time>2017-11-10T19:44:32Z</time>
			</trkpt>
		
			<trkpt lat="44.597770" lon="8.133110">
			 <ele>426</ele>
			<time>2017-11-10T19:46:32Z</time>
			</trkpt>
		
			<trkpt lat="44.597590" lon="8.133080">
			 <ele>427</ele>
			<time>2017-11-10T19:48:32Z</time>
			</trkpt>
		
			<trkpt lat="44.597560" lon="8.133070">
			 <ele>427</ele>
			<time>2017-11-10T19:50:32Z</time>
			</trkpt>
		
			<trkpt lat="44.597540" lon="8.133040">
			 <ele>428</ele>
			<time>2017-11-10T19:52:32Z</time>
			</trkpt>
		
			<trkpt lat="44.597490" lon="8.132960">
			 <ele>431</ele>
			<time>2017-11-10T19:54:32Z</time>
			</trkpt>
		
			<trkpt lat="44.597310" lon="8.132690">
			 <ele>436</ele>
			<time>2017-11-10T19:56:32Z</time>
			</trkpt>
		
			<trkpt lat="44.597290" lon="8.132670">
			 <ele>436</ele>
			<time>2017-11-10T19:58:32Z</time>
			</trkpt>
		
			<trkpt lat="44.597260" lon="8.132660">
			 <ele>436</ele>
			<time>2017-11-10T20:00:32Z</time>
			</trkpt>
		
			<trkpt lat="44.597220" lon="8.132660">
			 <ele>435</ele>
			<time>2017-11-10T20:02:32Z</time>
			</trkpt>
		
			<trkpt lat="44.597150" lon="8.132660">
			 <ele>434</ele>
			<time>2017-11-10T20:04:32Z</time>
			</trkpt>
		
			<trkpt lat="44.597080" lon="8.132650">
			 <ele>432</ele>
			<time>2017-11-10T20:06:32Z</time>
			</trkpt>
		
			<trkpt lat="44.597010" lon="8.132640">
			 <ele>431</ele>
			<time>2017-11-10T20:08:32Z</time>
			</trkpt>
		
			<trkpt lat="44.596970" lon="8.132620">
			 <ele>431</ele>
			<time>2017-11-10T20:10:32Z</time>
			</trkpt>
		
			<trkpt lat="44.596950" lon="8.132610">
			 <ele>431</ele>
			<time>2017-11-10T20:12:32Z</time>
			</trkpt>
		
			<trkpt lat="44.596920" lon="8.132590">
			 <ele>431</ele>
			<time>2017-11-10T20:14:32Z</time>
			</trkpt>
		
			<trkpt lat="44.596890" lon="8.132540">
			 <ele>432</ele>
			<time>2017-11-10T20:16:32Z</time>
			</trkpt>
		
			<trkpt lat="44.596860" lon="8.132490">
			 <ele>433</ele>
			<time>2017-11-10T20:18:32Z</time>
			</trkpt>
		
			<trkpt lat="44.596840" lon="8.132390">
			 <ele>436</ele>
			<time>2017-11-10T20:20:32Z</time>
			</trkpt>
		
			<trkpt lat="44.596820" lon="8.132250">
			 <ele>440</ele>
			<time>2017-11-10T20:22:32Z</time>
			</trkpt>
		
			<trkpt lat="44.596790" lon="8.132130">
			 <ele>443</ele>
			<time>2017-11-10T20:24:32Z</time>
			</trkpt>
		
			<trkpt lat="44.596740" lon="8.132020">
			 <ele>446</ele>
			<time>2017-11-10T20:26:32Z</time>
			</trkpt>
		
			<trkpt lat="44.596710" lon="8.131970">
			 <ele>447</ele>
			<time>2017-11-10T20:28:32Z</time>
			</trkpt>
		
			<trkpt lat="44.596640" lon="8.131890">
			 <ele>448</ele>
			<time>2017-11-10T20:30:32Z</time>
			</trkpt>
		
			<trkpt lat="44.596580" lon="8.131870">
			 <ele>449</ele>
			<time>2017-11-10T20:32:32Z</time>
			</trkpt>
		
			<trkpt lat="44.596500" lon="8.131860">
			 <ele>448</ele>
			<time>2017-11-10T20:34:32Z</time>
			</trkpt>
		
			<trkpt lat="44.596410" lon="8.131820">
			 <ele>449</ele>
			<time>2017-11-10T20:36:32Z</time>
			</trkpt>
		
			<trkpt lat="44.596400" lon="8.131810">
			 <ele>450</ele>
			<time>2017-11-10T20:38:32Z</time>
			</trkpt>
		
			<trkpt lat="44.596380" lon="8.131790">
			 <ele>450</ele>
			<time>2017-11-10T20:40:32Z</time>
			</trkpt>
		
			<trkpt lat="44.596380" lon="8.131770">
			 <ele>451</ele>
			<time>2017-11-10T20:42:32Z</time>
			</trkpt>
		
			<trkpt lat="44.596380" lon="8.131750">
			 <ele>452</ele>
			<time>2017-11-10T20:44:32Z</time>
			</trkpt>
		
			<trkpt lat="44.596380" lon="8.131720">
			 <ele>453</ele>
			<time>2017-11-10T20:46:32Z</time>
			</trkpt>
		
			<trkpt lat="44.596390" lon="8.131700">
			 <ele>454</ele>
			<time>2017-11-10T20:48:32Z</time>
			</trkpt>
		
			<trkpt lat="44.596470" lon="8.131690">
			 <ele>454</ele>
			<time>2017-11-10T20:50:32Z</time>
			</trkpt>
		
			<trkpt lat="44.596560" lon="8.131690">
			 <ele>455</ele>
			<time>2017-11-10T20:52:32Z</time>
			</trkpt>
		
			<trkpt lat="44.596660" lon="8.131710">
			 <ele>455</ele>
			<time>2017-11-10T20:54:32Z</time>
			</trkpt>
		
			<trkpt lat="44.596750" lon="8.131780">
			 <ele>454</ele>
			<time>2017-11-10T20:56:32Z</time>
			</trkpt>
		
			<trkpt lat="44.596820" lon="8.131850">
			 <ele>453</ele>
			<time>2017-11-10T20:58:32Z</time>
			</trkpt>
		
			<trkpt lat="44.596900" lon="8.131960">
			 <ele>452</ele>
			<time>2017-11-10T21:00:32Z</time>
			</trkpt>
		
			<trkpt lat="44.596950" lon="8.132070">
			 <ele>449</ele>
			<time>2017-11-10T21:02:32Z</time>
			</trkpt>
		
			<trkpt lat="44.597000" lon="8.132190">
			 <ele>446</ele>
			<time>2017-11-10T21:04:32Z</time>
			</trkpt>
		
			<trkpt lat="44.597030" lon="8.132240">
			 <ele>445</ele>
			<time>2017-11-10T21:06:32Z</time>
			</trkpt>
		
			<trkpt lat="44.597050" lon="8.132290">
			 <ele>444</ele>
			<time>2017-11-10T21:08:32Z</time>
			</trkpt>
		
			<trkpt lat="44.597060" lon="8.132290">
			 <ele>444</ele>
			<time>2017-11-10T21:10:32Z</time>
			</trkpt>
		
			<trkpt lat="44.597070" lon="8.132290">
			 <ele>444</ele>
			<time>2017-11-10T21:12:32Z</time>
			</trkpt>
		
			<trkpt lat="44.597090" lon="8.132290">
			 <ele>445</ele>
			<time>2017-11-10T21:14:32Z</time>
			</trkpt>
		
			<trkpt lat="44.597100" lon="8.132270">
			 <ele>446</ele>
			<time>2017-11-10T21:16:32Z</time>
			</trkpt>
		
			<trkpt lat="44.597110" lon="8.132240">
			 <ele>447</ele>
			<time>2017-11-10T21:18:32Z</time>
			</trkpt>
		
			<trkpt lat="44.597110" lon="8.132220">
			 <ele>448</ele>
			<time>2017-11-10T21:20:32Z</time>
			</trkpt>
		
			<trkpt lat="44.597110" lon="8.132180">
			 <ele>449</ele>
			<time>2017-11-10T21:22:32Z</time>
			</trkpt>
		
			<trkpt lat="44.597080" lon="8.132140">
			 <ele>450</ele>
			<time>2017-11-10T21:24:32Z</time>
			</trkpt>
		
			<trkpt lat="44.597040" lon="8.132020">
			 <ele>453</ele>
			<time>2017-11-10T21:26:32Z</time>
			</trkpt>
		
			<trkpt lat="44.597020" lon="8.131960">
			 <ele>454</ele>
			<time>2017-11-10T21:28:32Z</time>
			</trkpt>
		
			<trkpt lat="44.596990" lon="8.131830">
			 <ele>458</ele>
			<time>2017-11-10T21:30:32Z</time>
			</trkpt>
		
			<trkpt lat="44.596980" lon="8.131810">
			 <ele>459</ele>
			<time>2017-11-10T21:32:32Z</time>
			</trkpt>
		
			<trkpt lat="44.596910" lon="8.131650">
			 <ele>462</ele>
			<time>2017-11-10T21:34:32Z</time>
			</trkpt>
		
			<trkpt lat="44.596840" lon="8.131540">
			 <ele>465</ele>
			<time>2017-11-10T21:36:32Z</time>
			</trkpt>
		
			<trkpt lat="44.596750" lon="8.131480">
			 <ele>465</ele>
			<time>2017-11-10T21:38:32Z</time>
			</trkpt>
		
			<trkpt lat="44.596710" lon="8.131460">
			 <ele>465</ele>
			<time>2017-11-10T21:40:32Z</time>
			</trkpt>
		
			<trkpt lat="44.596670" lon="8.131450">
			 <ele>465</ele>
			<time>2017-11-10T21:42:32Z</time>
			</trkpt>
		
			<trkpt lat="44.596570" lon="8.131430">
			 <ele>465</ele>
			<time>2017-11-10T21:44:32Z</time>
			</trkpt>
		
			<trkpt lat="44.596490" lon="8.131440">
			 <ele>465</ele>
			<time>2017-11-10T21:46:32Z</time>
			</trkpt>
		
			<trkpt lat="44.596380" lon="8.131480">
			 <ele>463</ele>
			<time>2017-11-10T21:48:32Z</time>
			</trkpt>
		
			<trkpt lat="44.596300" lon="8.131510">
			 <ele>461</ele>
			<time>2017-11-10T21:50:32Z</time>
			</trkpt>
		
			<trkpt lat="44.596200" lon="8.131530">
			 <ele>460</ele>
			<time>2017-11-10T21:52:32Z</time>
			</trkpt>
		
			<trkpt lat="44.596090" lon="8.131530">
			 <ele>459</ele>
			<time>2017-11-10T21:54:32Z</time>
			</trkpt>
		
			<trkpt lat="44.596070" lon="8.131520">
			 <ele>460</ele>
			<time>2017-11-10T21:56:32Z</time>
			</trkpt>
		
			<trkpt lat="44.596030" lon="8.131500">
			 <ele>460</ele>
			<time>2017-11-10T21:58:32Z</time>
			</trkpt>
		
			<trkpt lat="44.595960" lon="8.131450">
			 <ele>462</ele>
			<time>2017-11-10T22:00:32Z</time>
			</trkpt>
		
			<trkpt lat="44.595890" lon="8.131370">
			 <ele>465</ele>
			<time>2017-11-10T22:02:32Z</time>
			</trkpt>
		
			<trkpt lat="44.595830" lon="8.131330">
			 <ele>466</ele>
			<time>2017-11-10T22:04:32Z</time>
			</trkpt>
		
			<trkpt lat="44.595740" lon="8.131310">
			 <ele>465</ele>
			<time>2017-11-10T22:06:32Z</time>
			</trkpt>
		
			<trkpt lat="44.595650" lon="8.131290">
			 <ele>465</ele>
			<time>2017-11-10T22:08:32Z</time>
			</trkpt>
		
			<trkpt lat="44.595590" lon="8.131250">
			 <ele>465</ele>
			<time>2017-11-10T22:10:32Z</time>
			</trkpt>
		
			<trkpt lat="44.595510" lon="8.131180">
			 <ele>466</ele>
			<time>2017-11-10T22:12:32Z</time>
			</trkpt>
		
			<trkpt lat="44.595430" lon="8.131140">
			 <ele>466</ele>
			<time>2017-11-10T22:14:32Z</time>
			</trkpt>
		
			<trkpt lat="44.595160" lon="8.131030">
			 <ele>465</ele>
			<time>2017-11-10T22:16:32Z</time>
			</trkpt>
		
			<trkpt lat="44.594960" lon="8.130990">
			 <ele>461</ele>
			<time>2017-11-10T22:18:32Z</time>
			</trkpt>
		
			<trkpt lat="44.594880" lon="8.130960">
			 <ele>459</ele>
			<time>2017-11-10T22:20:32Z</time>
			</trkpt>
		
			<trkpt lat="44.594830" lon="8.130910">
			 <ele>459</ele>
			<time>2017-11-10T22:22:32Z</time>
			</trkpt>
		
			<trkpt lat="44.594790" lon="8.130860">
			 <ele>459</ele>
			<time>2017-11-10T22:24:32Z</time>
			</trkpt>
		
			<trkpt lat="44.594760" lon="8.130800">
			 <ele>459</ele>
			<time>2017-11-10T22:26:32Z</time>
			</trkpt>
		
			<trkpt lat="44.594730" lon="8.130680">
			 <ele>460</ele>
			<time>2017-11-10T22:28:32Z</time>
			</trkpt>
		
			<trkpt lat="44.594720" lon="8.130560">
			 <ele>461</ele>
			<time>2017-11-10T22:30:32Z</time>
			</trkpt>
		
			<trkpt lat="44.594780" lon="8.130290">
			 <ele>466</ele>
			<time>2017-11-10T22:32:32Z</time>
			</trkpt>
		
			<trkpt lat="44.594920" lon="8.129830">
			 <ele>475</ele>
			<time>2017-11-10T22:34:32Z</time>
			</trkpt>
		
			<trkpt lat="44.595050" lon="8.129490">
			 <ele>478</ele>
			<time>2017-11-10T22:36:32Z</time>
			</trkpt>
		
			<trkpt lat="44.595170" lon="8.129220">
			 <ele>482</ele>
			<time>2017-11-10T22:38:32Z</time>
			</trkpt>
		
			<trkpt lat="44.595290" lon="8.128860">
			 <ele>488</ele>
			<time>2017-11-10T22:40:32Z</time>
			</trkpt>
		
			<trkpt lat="44.595360" lon="8.128710">
			 <ele>490</ele>
			<time>2017-11-10T22:42:32Z</time>
			</trkpt>
		
			<trkpt lat="44.595410" lon="8.128610">
			 <ele>492</ele>
			<time>2017-11-10T22:44:32Z</time>
			</trkpt>
		
			<trkpt lat="44.595450" lon="8.128530">
			 <ele>493</ele>
			<time>2017-11-10T22:46:32Z</time>
			</trkpt>
		
			<trkpt lat="44.595450" lon="8.128510">
			 <ele>493</ele>
			<time>2017-11-10T22:48:32Z</time>
			</trkpt>
		
			<trkpt lat="44.595450" lon="8.128470">
			 <ele>493</ele>
			<time>2017-11-10T22:50:32Z</time>
			</trkpt>
		
			<trkpt lat="44.595450" lon="8.128440">
			 <ele>493</ele>
			<time>2017-11-10T22:52:32Z</time>
			</trkpt>
		
			<trkpt lat="44.595440" lon="8.128420">
			 <ele>493</ele>
			<time>2017-11-10T22:54:32Z</time>
			</trkpt>
		
			<trkpt lat="44.595430" lon="8.128400">
			 <ele>493</ele>
			<time>2017-11-10T22:56:32Z</time>
			</trkpt>
		
			<trkpt lat="44.595410" lon="8.128370">
			 <ele>493</ele>
			<time>2017-11-10T22:58:32Z</time>
			</trkpt>
		
			<trkpt lat="44.595380" lon="8.128360">
			 <ele>492</ele>
			<time>2017-11-10T23:00:32Z</time>
			</trkpt>
		
			<trkpt lat="44.595270" lon="8.128360">
			 <ele>490</ele>
			<time>2017-11-10T23:02:32Z</time>
			</trkpt>
		
			<trkpt lat="44.595050" lon="8.128330">
			 <ele>486</ele>
			<time>2017-11-10T23:04:32Z</time>
			</trkpt>
		
			<trkpt lat="44.594920" lon="8.128300">
			 <ele>486</ele>
			<time>2017-11-10T23:06:32Z</time>
			</trkpt>
		
			<trkpt lat="44.594860" lon="8.128320">
			 <ele>486</ele>
			<time>2017-11-10T23:08:32Z</time>
			</trkpt>
		
			<trkpt lat="44.594550" lon="8.128540">
			 <ele>483</ele>
			<time>2017-11-10T23:10:32Z</time>
			</trkpt>
		
			<trkpt lat="44.594150" lon="8.128790">
			 <ele>477</ele>
			<time>2017-11-10T23:12:32Z</time>
			</trkpt>
		
			<trkpt lat="44.594080" lon="8.128820">
			 <ele>475</ele>
			<time>2017-11-10T23:14:32Z</time>
			</trkpt>
		
			<trkpt lat="44.593760" lon="8.128900">
			 <ele>469</ele>
			<time>2017-11-10T23:16:32Z</time>
			</trkpt>
		
			<trkpt lat="44.593710" lon="8.128900">
			 <ele>468</ele>
			<time>2017-11-10T23:18:32Z</time>
			</trkpt>
		
			<trkpt lat="44.593680" lon="8.128890">
			 <ele>468</ele>
			<time>2017-11-10T23:20:32Z</time>
			</trkpt>
		
			<trkpt lat="44.593660" lon="8.128860">
			 <ele>468</ele>
			<time>2017-11-10T23:22:32Z</time>
			</trkpt>
		
			<trkpt lat="44.593650" lon="8.128840">
			 <ele>468</ele>
			<time>2017-11-10T23:24:32Z</time>
			</trkpt>
		
			<trkpt lat="44.593640" lon="8.128810">
			 <ele>469</ele>
			<time>2017-11-10T23:26:32Z</time>
			</trkpt>
		
			<trkpt lat="44.593630" lon="8.128760">
			 <ele>469</ele>
			<time>2017-11-10T23:28:32Z</time>
			</trkpt>
		
			<trkpt lat="44.593640" lon="8.128650">
			 <ele>472</ele>
			<time>2017-11-10T23:30:32Z</time>
			</trkpt>
		
			<trkpt lat="44.593660" lon="8.128520">
			 <ele>474</ele>
			<time>2017-11-10T23:32:32Z</time>
			</trkpt>
		
			<trkpt lat="44.593720" lon="8.128060">
			 <ele>484</ele>
			<time>2017-11-10T23:34:32Z</time>
			</trkpt>
		
			<trkpt lat="44.593720" lon="8.127660">
			 <ele>492</ele>
			<time>2017-11-10T23:36:32Z</time>
			</trkpt>
		
			<trkpt lat="44.593790" lon="8.126750">
			 <ele>511</ele>
			<time>2017-11-10T23:38:32Z</time>
			</trkpt>
		
			<trkpt lat="44.593790" lon="8.126700">
			 <ele>511</ele>
			<time>2017-11-10T23:40:32Z</time>
			</trkpt>
		
			<trkpt lat="44.593780" lon="8.126650">
			 <ele>512</ele>
			<time>2017-11-10T23:42:32Z</time>
			</trkpt>
		
			<trkpt lat="44.593780" lon="8.126610">
			 <ele>513</ele>
			<time>2017-11-10T23:44:32Z</time>
			</trkpt>
		
			<trkpt lat="44.593770" lon="8.126590">
			 <ele>514</ele>
			<time>2017-11-10T23:46:32Z</time>
			</trkpt>
		
			<trkpt lat="44.593750" lon="8.126570">
			 <ele>514</ele>
			<time>2017-11-10T23:48:32Z</time>
			</trkpt>
		
			<trkpt lat="44.593710" lon="8.126540">
			 <ele>514</ele>
			<time>2017-11-10T23:50:32Z</time>
			</trkpt>
		
			<trkpt lat="44.593660" lon="8.126550">
			 <ele>513</ele>
			<time>2017-11-10T23:52:32Z</time>
			</trkpt>
		
			<trkpt lat="44.593580" lon="8.126620">
			 <ele>510</ele>
			<time>2017-11-10T23:54:32Z</time>
			</trkpt>
		
			<trkpt lat="44.593340" lon="8.126900">
			 <ele>500</ele>
			<time>2017-11-10T23:56:32Z</time>
			</trkpt>
		
			<trkpt lat="44.593270" lon="8.126960">
			 <ele>499</ele>
			<time>2017-11-10T23:58:32Z</time>
			</trkpt>
		
			<trkpt lat="44.593120" lon="8.127020">
			 <ele>499</ele>
			<time>2017-11-11T00:00:32Z</time>
			</trkpt>
		
			<trkpt lat="44.592960" lon="8.127070">
			 <ele>500</ele>
			<time>2017-11-11T00:02:32Z</time>
			</trkpt>
		
			<trkpt lat="44.592690" lon="8.127080">
			 <ele>502</ele>
			<time>2017-11-11T00:04:32Z</time>
			</trkpt>
		
			<trkpt lat="44.592650" lon="8.127080">
			 <ele>502</ele>
			<time>2017-11-11T00:06:32Z</time>
			</trkpt>
		
			<trkpt lat="44.592600" lon="8.127090">
			 <ele>502</ele>
			<time>2017-11-11T00:08:32Z</time>
			</trkpt>
		
			<trkpt lat="44.592560" lon="8.127120">
			 <ele>502</ele>
			<time>2017-11-11T00:10:32Z</time>
			</trkpt>
		
			<trkpt lat="44.592530" lon="8.127160">
			 <ele>501</ele>
			<time>2017-11-11T00:12:32Z</time>
			</trkpt>
		
			<trkpt lat="44.592490" lon="8.127190">
			 <ele>500</ele>
			<time>2017-11-11T00:14:32Z</time>
			</trkpt>
		
			<trkpt lat="44.592450" lon="8.127210">
			 <ele>499</ele>
			<time>2017-11-11T00:16:32Z</time>
			</trkpt>
		
			<trkpt lat="44.592400" lon="8.127210">
			 <ele>498</ele>
			<time>2017-11-11T00:18:32Z</time>
			</trkpt>
		
			<trkpt lat="44.592350" lon="8.127210">
			 <ele>497</ele>
			<time>2017-11-11T00:20:32Z</time>
			</trkpt>
		
			<trkpt lat="44.592300" lon="8.127190">
			 <ele>497</ele>
			<time>2017-11-11T00:22:32Z</time>
			</trkpt>
		
			<trkpt lat="44.591930" lon="8.126950">
			 <ele>499</ele>
			<time>2017-11-11T00:24:32Z</time>
			</trkpt>
		
			<trkpt lat="44.591900" lon="8.126920">
			 <ele>500</ele>
			<time>2017-11-11T00:26:32Z</time>
			</trkpt>
		
			<trkpt lat="44.591900" lon="8.126890">
			 <ele>500</ele>
			<time>2017-11-11T00:28:32Z</time>
			</trkpt>
		
			<trkpt lat="44.591890" lon="8.126850">
			 <ele>501</ele>
			<time>2017-11-11T00:30:32Z</time>
			</trkpt>
		
			<trkpt lat="44.591900" lon="8.126840">
			 <ele>502</ele>
			<time>2017-11-11T00:32:32Z</time>
			</trkpt>
		
			<trkpt lat="44.591900" lon="8.126830">
			 <ele>502</ele>
			<time>2017-11-11T00:34:32Z</time>
			</trkpt>
		
			<trkpt lat="44.591900" lon="8.126830">
			 <ele>502</ele>
			<time>2017-11-11T00:36:32Z</time>
			</trkpt>
		
			<trkpt lat="44.591910" lon="8.126830">
			 <ele>502</ele>
			<time>2017-11-11T00:38:32Z</time>
			</trkpt>
		
			<trkpt lat="44.591920" lon="8.126820">
			 <ele>503</ele>
			<time>2017-11-11T00:40:32Z</time>
			</trkpt>
		
			<trkpt lat="44.591940" lon="8.126820">
			 <ele>503</ele>
			<time>2017-11-11T00:42:32Z</time>
			</trkpt>
		
			<trkpt lat="44.591980" lon="8.126840">
			 <ele>503</ele>
			<time>2017-11-11T00:44:32Z</time>
			</trkpt>
		
			<trkpt lat="44.592210" lon="8.126950">
			 <ele>503</ele>
			<time>2017-11-11T00:46:32Z</time>
			</trkpt>
		
			<trkpt lat="44.592300" lon="8.126990">
			 <ele>504</ele>
			<time>2017-11-11T00:48:32Z</time>
			</trkpt>
		
			<trkpt lat="44.592370" lon="8.126990">
			 <ele>505</ele>
			<time>2017-11-11T00:50:32Z</time>
			</trkpt>
		
			<trkpt lat="44.592400" lon="8.126990">
			 <ele>505</ele>
			<time>2017-11-11T00:52:32Z</time>
			</trkpt>
		
			<trkpt lat="44.592440" lon="8.126980">
			 <ele>506</ele>
			<time>2017-11-11T00:54:32Z</time>
			</trkpt>
		
			<trkpt lat="44.592470" lon="8.126960">
			 <ele>507</ele>
			<time>2017-11-11T00:56:32Z</time>
			</trkpt>
		
			<trkpt lat="44.592510" lon="8.126910">
			 <ele>509</ele>
			<time>2017-11-11T00:58:32Z</time>
			</trkpt>
		
			<trkpt lat="44.592570" lon="8.126830">
			 <ele>511</ele>
			<time>2017-11-11T01:00:32Z</time>
			</trkpt>
		
			<trkpt lat="44.592600" lon="8.126770">
			 <ele>512</ele>
			<time>2017-11-11T01:02:32Z</time>
			</trkpt>
		
			<trkpt lat="44.592700" lon="8.126560">
			 <ele>518</ele>
			<time>2017-11-11T01:04:32Z</time>
			</trkpt>
		
			<trkpt lat="44.592750" lon="8.126510">
			 <ele>518</ele>
			<time>2017-11-11T01:06:32Z</time>
			</trkpt>
		
			<trkpt lat="44.592980" lon="8.126400">
			 <ele>518</ele>
			<time>2017-11-11T01:08:32Z</time>
			</trkpt>
		
			<trkpt lat="44.593090" lon="8.126320">
			 <ele>519</ele>
			<time>2017-11-11T01:10:32Z</time>
			</trkpt>
		
			<trkpt lat="44.593220" lon="8.126180">
			 <ele>521</ele>
			<time>2017-11-11T01:12:32Z</time>
			</trkpt>
		
			<trkpt lat="44.593450" lon="8.125860">
			 <ele>530</ele>
			<time>2017-11-11T01:14:32Z</time>
			</trkpt>
		
			<trkpt lat="44.593590" lon="8.125720">
			 <ele>535</ele>
			<time>2017-11-11T01:16:32Z</time>
			</trkpt>
		
			<trkpt lat="44.593740" lon="8.125630">
			 <ele>538</ele>
			<time>2017-11-11T01:18:32Z</time>
			</trkpt>
		
			<trkpt lat="44.593790" lon="8.125580">
			 <ele>539</ele>
			<time>2017-11-11T01:20:32Z</time>
			</trkpt>
		
			<trkpt lat="44.593800" lon="8.125540">
			 <ele>541</ele>
			<time>2017-11-11T01:22:32Z</time>
			</trkpt>
		
			<trkpt lat="44.593790" lon="8.125520">
			 <ele>541</ele>
			<time>2017-11-11T01:24:32Z</time>
			</trkpt>
		
			<trkpt lat="44.593790" lon="8.125500">
			 <ele>542</ele>
			<time>2017-11-11T01:26:32Z</time>
			</trkpt>
		
			<trkpt lat="44.593760" lon="8.125480">
			 <ele>542</ele>
			<time>2017-11-11T01:28:32Z</time>
			</trkpt>
		
			<trkpt lat="44.593720" lon="8.125470">
			 <ele>543</ele>
			<time>2017-11-11T01:30:32Z</time>
			</trkpt>
		
			<trkpt lat="44.593670" lon="8.125480">
			 <ele>543</ele>
			<time>2017-11-11T01:32:32Z</time>
			</trkpt>
		
			<trkpt lat="44.593590" lon="8.125510">
			 <ele>542</ele>
			<time>2017-11-11T01:34:32Z</time>
			</trkpt>
		
			<trkpt lat="44.593430" lon="8.125580">
			 <ele>539</ele>
			<time>2017-11-11T01:36:32Z</time>
			</trkpt>
		
			<trkpt lat="44.593210" lon="8.125730">
			 <ele>536</ele>
			<time>2017-11-11T01:38:32Z</time>
			</trkpt>
		
			<trkpt lat="44.593060" lon="8.125860">
			 <ele>534</ele>
			<time>2017-11-11T01:40:32Z</time>
			</trkpt>
		
			<trkpt lat="44.593030" lon="8.125880">
			 <ele>534</ele>
			<time>2017-11-11T01:42:32Z</time>
			</trkpt>
		
			<trkpt lat="44.592900" lon="8.125890">
			 <ele>536</ele>
			<time>2017-11-11T01:44:32Z</time>
			</trkpt>
		
			<trkpt lat="44.592780" lon="8.125890">
			 <ele>538</ele>
			<time>2017-11-11T01:46:32Z</time>
			</trkpt>
		
			<trkpt lat="44.592730" lon="8.125860">
			 <ele>539</ele>
			<time>2017-11-11T01:48:32Z</time>
			</trkpt>
		
			<trkpt lat="44.592710" lon="8.125830">
			 <ele>541</ele>
			<time>2017-11-11T01:50:32Z</time>
			</trkpt>
		
			<trkpt lat="44.592710" lon="8.125800">
			 <ele>542</ele>
			<time>2017-11-11T01:52:32Z</time>
			</trkpt>
		
			<trkpt lat="44.592730" lon="8.125780">
			 <ele>542</ele>
			<time>2017-11-11T01:54:32Z</time>
			</trkpt>
		
			<trkpt lat="44.592770" lon="8.125770">
			 <ele>542</ele>
			<time>2017-11-11T01:56:32Z</time>
			</trkpt>
		
			<trkpt lat="44.592830" lon="8.125760">
			 <ele>541</ele>
			<time>2017-11-11T01:58:32Z</time>
			</trkpt>
		
			<trkpt lat="44.592950" lon="8.125730">
			 <ele>540</ele>
			<time>2017-11-11T02:00:32Z</time>
			</trkpt>
		
			<trkpt lat="44.592980" lon="8.125720">
			 <ele>540</ele>
			<time>2017-11-11T02:02:32Z</time>
			</trkpt>
		
			<trkpt lat="44.593000" lon="8.125690">
			 <ele>541</ele>
			<time>2017-11-11T02:04:32Z</time>
			</trkpt>
		
			<trkpt lat="44.593060" lon="8.125590">
			 <ele>543</ele>
			<time>2017-11-11T02:06:32Z</time>
			</trkpt>
		
			<trkpt lat="44.593350" lon="8.125070">
			 <ele>558</ele>
			<time>2017-11-11T02:08:32Z</time>
			</trkpt>
		
			<trkpt lat="44.593420" lon="8.124940">
			 <ele>562</ele>
			<time>2017-11-11T02:10:32Z</time>
			</trkpt>
		
			<trkpt lat="44.593510" lon="8.124820">
			 <ele>565</ele>
			<time>2017-11-11T02:12:32Z</time>
			</trkpt>
		
			<trkpt lat="44.593610" lon="8.124740">
			 <ele>566</ele>
			<time>2017-11-11T02:14:32Z</time>
			</trkpt>
		
			<trkpt lat="44.593660" lon="8.124700">
			 <ele>567</ele>
			<time>2017-11-11T02:16:32Z</time>
			</trkpt>
		
			<trkpt lat="44.593810" lon="8.124640">
			 <ele>567</ele>
			<time>2017-11-11T02:18:32Z</time>
			</trkpt>
		
			<trkpt lat="44.593900" lon="8.124620">
			 <ele>567</ele>
			<time>2017-11-11T02:20:32Z</time>
			</trkpt>
		
			<trkpt lat="44.594270" lon="8.124540">
			 <ele>571</ele>
			<time>2017-11-11T02:22:32Z</time>
			</trkpt>
		
			<trkpt lat="44.594370" lon="8.124500">
			 <ele>576</ele>
			<time>2017-11-11T02:24:32Z</time>
			</trkpt>
		
			<trkpt lat="44.594430" lon="8.124510">
			 <ele>577</ele>
			<time>2017-11-11T02:26:32Z</time>
			</trkpt>
		
			<trkpt lat="44.594460" lon="8.124510">
			 <ele>579</ele>
			<time>2017-11-11T02:28:32Z</time>
			</trkpt>
		
			<trkpt lat="44.594480" lon="8.124520">
			 <ele>579</ele>
			<time>2017-11-11T02:30:32Z</time>
			</trkpt>
		
			<trkpt lat="44.594500" lon="8.124540">
			 <ele>579</ele>
			<time>2017-11-11T02:32:32Z</time>
			</trkpt>
		
			<trkpt lat="44.594540" lon="8.124640">
			 <ele>578</ele>
			<time>2017-11-11T02:34:32Z</time>
			</trkpt>
		
			<trkpt lat="44.594640" lon="8.124980">
			 <ele>574</ele>
			<time>2017-11-11T02:36:32Z</time>
			</trkpt>
		
			<trkpt lat="44.594710" lon="8.125200">
			 <ele>572</ele>
			<time>2017-11-11T02:38:32Z</time>
			</trkpt>
		
			<trkpt lat="44.594770" lon="8.125480">
			 <ele>568</ele>
			<time>2017-11-11T02:40:32Z</time>
			</trkpt>
		
			<trkpt lat="44.594790" lon="8.125560">
			 <ele>567</ele>
			<time>2017-11-11T02:42:32Z</time>
			</trkpt>
		
			<trkpt lat="44.594810" lon="8.125590">
			 <ele>567</ele>
			<time>2017-11-11T02:44:32Z</time>
			</trkpt>
		
			<trkpt lat="44.594820" lon="8.125610">
			 <ele>567</ele>
			<time>2017-11-11T02:46:32Z</time>
			</trkpt>
		
			<trkpt lat="44.594840" lon="8.125620">
			 <ele>568</ele>
			<time>2017-11-11T02:48:32Z</time>
			</trkpt>
		
			<trkpt lat="44.594850" lon="8.125640">
			 <ele>568</ele>
			<time>2017-11-11T02:50:32Z</time>
			</trkpt>
		
			<trkpt lat="44.594870" lon="8.125640">
			 <ele>569</ele>
			<time>2017-11-11T02:52:32Z</time>
			</trkpt>
		
			<trkpt lat="44.594890" lon="8.125620">
			 <ele>570</ele>
			<time>2017-11-11T02:54:32Z</time>
			</trkpt>
		
			<trkpt lat="44.594910" lon="8.125610">
			 <ele>571</ele>
			<time>2017-11-11T02:56:32Z</time>
			</trkpt>
		
			<trkpt lat="44.594920" lon="8.125600">
			 <ele>572</ele>
			<time>2017-11-11T02:58:32Z</time>
			</trkpt>
		
			<trkpt lat="44.594930" lon="8.125580">
			 <ele>573</ele>
			<time>2017-11-11T03:00:32Z</time>
			</trkpt>
		
			<trkpt lat="44.594940" lon="8.125560">
			 <ele>574</ele>
			<time>2017-11-11T03:02:32Z</time>
			</trkpt>
		
			<trkpt lat="44.594940" lon="8.125560">
			 <ele>574</ele>
			<time>2017-11-11T03:04:32Z</time>
			</trkpt>
		
			<trkpt lat="44.594940" lon="8.125540">
			 <ele>574</ele>
			<time>2017-11-11T03:06:32Z</time>
			</trkpt>
		
			<trkpt lat="44.594930" lon="8.125510">
			 <ele>575</ele>
			<time>2017-11-11T03:08:32Z</time>
			</trkpt>
		
			<trkpt lat="44.594890" lon="8.125400">
			 <ele>576</ele>
			<time>2017-11-11T03:10:32Z</time>
			</trkpt>
		
			<trkpt lat="44.594870" lon="8.125280">
			 <ele>577</ele>
			<time>2017-11-11T03:12:32Z</time>
			</trkpt>
		
			<trkpt lat="44.594840" lon="8.124830">
			 <ele>586</ele>
			<time>2017-11-11T03:14:32Z</time>
			</trkpt>
		
			<trkpt lat="44.594830" lon="8.124450">
			 <ele>593</ele>
			<time>2017-11-11T03:16:32Z</time>
			</trkpt>
		
			<trkpt lat="44.594840" lon="8.124260">
			 <ele>597</ele>
			<time>2017-11-11T03:18:32Z</time>
			</trkpt>
		
			<trkpt lat="44.594840" lon="8.124170">
			 <ele>599</ele>
			<time>2017-11-11T03:20:32Z</time>
			</trkpt>
		
			<trkpt lat="44.594840" lon="8.124100">
			 <ele>601</ele>
			<time>2017-11-11T03:22:32Z</time>
			</trkpt>
		
			<trkpt lat="44.594830" lon="8.124050">
			 <ele>602</ele>
			<time>2017-11-11T03:24:32Z</time>
			</trkpt>
		
			<trkpt lat="44.594810" lon="8.124000">
			 <ele>603</ele>
			<time>2017-11-11T03:26:32Z</time>
			</trkpt>
		
			<trkpt lat="44.594770" lon="8.123960">
			 <ele>603</ele>
			<time>2017-11-11T03:28:32Z</time>
			</trkpt>
		
			<trkpt lat="44.594670" lon="8.123890">
			 <ele>603</ele>
			<time>2017-11-11T03:30:32Z</time>
			</trkpt>
		
			<trkpt lat="44.593800" lon="8.123530">
			 <ele>601</ele>
			<time>2017-11-11T03:32:32Z</time>
			</trkpt>
		
			<trkpt lat="44.593690" lon="8.123500">
			 <ele>600</ele>
			<time>2017-11-11T03:34:32Z</time>
			</trkpt>
		
			<trkpt lat="44.593650" lon="8.123490">
			 <ele>600</ele>
			<time>2017-11-11T03:36:32Z</time>
			</trkpt>
		
			<trkpt lat="44.593610" lon="8.123490">
			 <ele>600</ele>
			<time>2017-11-11T03:38:32Z</time>
			</trkpt>
		
			<trkpt lat="44.593560" lon="8.123500">
			 <ele>599</ele>
			<time>2017-11-11T03:40:32Z</time>
			</trkpt>
		
			<trkpt lat="44.593520" lon="8.123510">
			 <ele>598</ele>
			<time>2017-11-11T03:42:32Z</time>
			</trkpt>
		
			<trkpt lat="44.593490" lon="8.123530">
			 <ele>598</ele>
			<time>2017-11-11T03:44:32Z</time>
			</trkpt>
		
			<trkpt lat="44.593450" lon="8.123570">
			 <ele>597</ele>
			<time>2017-11-11T03:46:32Z</time>
			</trkpt>
		
			<trkpt lat="44.593410" lon="8.123600">
			 <ele>596</ele>
			<time>2017-11-11T03:48:32Z</time>
			</trkpt>
		
			<trkpt lat="44.593360" lon="8.123610">
			 <ele>595</ele>
			<time>2017-11-11T03:50:32Z</time>
			</trkpt>
		
			<trkpt lat="44.593320" lon="8.123610">
			 <ele>595</ele>
			<time>2017-11-11T03:52:32Z</time>
			</trkpt>
		
			<trkpt lat="44.593280" lon="8.123600">
			 <ele>594</ele>
			<time>2017-11-11T03:54:32Z</time>
			</trkpt>
		
			<trkpt lat="44.593260" lon="8.123580">
			 <ele>593</ele>
			<time>2017-11-11T03:56:32Z</time>
			</trkpt>
		
			<trkpt lat="44.593240" lon="8.123540">
			 <ele>593</ele>
			<time>2017-11-11T03:58:32Z</time>
			</trkpt>
		
			<trkpt lat="44.593240" lon="8.123510">
			 <ele>594</ele>
			<time>2017-11-11T04:00:32Z</time>
			</trkpt>
		
			<trkpt lat="44.593250" lon="8.123470">
			 <ele>594</ele>
			<time>2017-11-11T04:02:32Z</time>
			</trkpt>
		
			<trkpt lat="44.593280" lon="8.123430">
			 <ele>596</ele>
			<time>2017-11-11T04:04:32Z</time>
			</trkpt>
		
			<trkpt lat="44.593320" lon="8.123400">
			 <ele>598</ele>
			<time>2017-11-11T04:06:32Z</time>
			</trkpt>
		
			<trkpt lat="44.593400" lon="8.123350">
			 <ele>600</ele>
			<time>2017-11-11T04:08:32Z</time>
			</trkpt>
		
			<trkpt lat="44.593450" lon="8.123300">
			 <ele>600</ele>
			<time>2017-11-11T04:10:32Z</time>
			</trkpt>
		
			<trkpt lat="44.593510" lon="8.123200">
			 <ele>600</ele>
			<time>2017-11-11T04:12:32Z</time>
			</trkpt>
		
			<trkpt lat="44.593680" lon="8.122960">
			 <ele>602</ele>
			<time>2017-11-11T04:14:32Z</time>
			</trkpt>
		
			<trkpt lat="44.593760" lon="8.122840">
			 <ele>603</ele>
			<time>2017-11-11T04:16:32Z</time>
			</trkpt>
		
			<trkpt lat="44.593820" lon="8.122770">
			 <ele>605</ele>
			<time>2017-11-11T04:18:32Z</time>
			</trkpt>
		
			<trkpt lat="44.594070" lon="8.122600">
			 <ele>613</ele>
			<time>2017-11-11T04:20:32Z</time>
			</trkpt>
		
			<trkpt lat="44.594710" lon="8.122230">
			 <ele>625</ele>
			<time>2017-11-11T04:22:32Z</time>
			</trkpt>
		
			<trkpt lat="44.594920" lon="8.122120">
			 <ele>628</ele>
			<time>2017-11-11T04:24:32Z</time>
			</trkpt>
		
			<trkpt lat="44.595240" lon="8.122020">
			 <ele>637</ele>
			<time>2017-11-11T04:26:32Z</time>
			</trkpt>
		
			<trkpt lat="44.595580" lon="8.121920">
			 <ele>647</ele>
			<time>2017-11-11T04:28:32Z</time>
			</trkpt>
		
			<trkpt lat="44.595660" lon="8.121900">
			 <ele>649</ele>
			<time>2017-11-11T04:30:32Z</time>
			</trkpt>
		
			<trkpt lat="44.595670" lon="8.121900">
			 <ele>649</ele>
			<time>2017-11-11T04:32:32Z</time>
			</trkpt>
		
			<trkpt lat="44.595680" lon="8.121900">
			 <ele>650</ele>
			<time>2017-11-11T04:34:32Z</time>
			</trkpt>
		
			<trkpt lat="44.595680" lon="8.121910">
			 <ele>650</ele>
			<time>2017-11-11T04:36:32Z</time>
			</trkpt>
		
			<trkpt lat="44.595690" lon="8.121920">
			 <ele>650</ele>
			<time>2017-11-11T04:38:32Z</time>
			</trkpt>
		
			<trkpt lat="44.595690" lon="8.121940">
			 <ele>651</ele>
			<time>2017-11-11T04:40:32Z</time>
			</trkpt>
		
			<trkpt lat="44.595690" lon="8.121950">
			 <ele>651</ele>
			<time>2017-11-11T04:42:32Z</time>
			</trkpt>
		
			<trkpt lat="44.595690" lon="8.121960">
			 <ele>651</ele>
			<time>2017-11-11T04:44:32Z</time>
			</trkpt>
		
			<trkpt lat="44.595680" lon="8.121970">
			 <ele>651</ele>
			<time>2017-11-11T04:46:32Z</time>
			</trkpt>
		
			<trkpt lat="44.595680" lon="8.121980">
			 <ele>651</ele>
			<time>2017-11-11T04:48:32Z</time>
			</trkpt>
		
			<trkpt lat="44.595670" lon="8.122000">
			 <ele>651</ele>
			<time>2017-11-11T04:50:32Z</time>
			</trkpt>
		
			<trkpt lat="44.595630" lon="8.122040">
			 <ele>650</ele>
			<time>2017-11-11T04:52:32Z</time>
			</trkpt>
		
			<trkpt lat="44.595410" lon="8.122230">
			 <ele>646</ele>
			<time>2017-11-11T04:54:32Z</time>
			</trkpt>
		
			<trkpt lat="44.595190" lon="8.122420">
			 <ele>643</ele>
			<time>2017-11-11T04:56:32Z</time>
			</trkpt>
		
			<trkpt lat="44.595150" lon="8.122470">
			 <ele>643</ele>
			<time>2017-11-11T04:58:32Z</time>
			</trkpt>
		
			<trkpt lat="44.595140" lon="8.122500">
			 <ele>644</ele>
			<time>2017-11-11T05:00:32Z</time>
			</trkpt>
		
			<trkpt lat="44.595140" lon="8.122520">
			 <ele>643</ele>
			<time>2017-11-11T05:02:32Z</time>
			</trkpt>
		
			<trkpt lat="44.595150" lon="8.122550">
			 <ele>643</ele>
			<time>2017-11-11T05:04:32Z</time>
			</trkpt>
		
			<trkpt lat="44.595200" lon="8.122590">
			 <ele>644</ele>
			<time>2017-11-11T05:06:32Z</time>
			</trkpt>
		
			<trkpt lat="44.595330" lon="8.122640">
			 <ele>646</ele>
			<time>2017-11-11T05:08:32Z</time>
			</trkpt>
		
			<trkpt lat="44.595510" lon="8.122710">
			 <ele>650</ele>
			<time>2017-11-11T05:10:32Z</time>
			</trkpt>
		
			<trkpt lat="44.595680" lon="8.122780">
			 <ele>654</ele>
			<time>2017-11-11T05:12:32Z</time>
			</trkpt>
		
			<trkpt lat="44.595860" lon="8.122840">
			 <ele>658</ele>
			<time>2017-11-11T05:14:32Z</time>
			</trkpt>
		
			<trkpt lat="44.595920" lon="8.122880">
			 <ele>659</ele>
			<time>2017-11-11T05:16:32Z</time>
			</trkpt>
		
			<trkpt lat="44.595980" lon="8.122890">
			 <ele>660</ele>
			<time>2017-11-11T05:18:32Z</time>
			</trkpt>
		
			<trkpt lat="44.596020" lon="8.122900">
			 <ele>660</ele>
			<time>2017-11-11T05:20:32Z</time>
			</trkpt>
		
			<trkpt lat="44.596040" lon="8.122890">
			 <ele>661</ele>
			<time>2017-11-11T05:22:32Z</time>
			</trkpt>
		
			<trkpt lat="44.596060" lon="8.122850">
			 <ele>662</ele>
			<time>2017-11-11T05:24:32Z</time>
			</trkpt>
		
			<trkpt lat="44.596050" lon="8.122820">
			 <ele>662</ele>
			<time>2017-11-11T05:26:32Z</time>
			</trkpt>
		
			<trkpt lat="44.596050" lon="8.122790">
			 <ele>662</ele>
			<time>2017-11-11T05:28:32Z</time>
			</trkpt>
		
			<trkpt lat="44.596020" lon="8.122760">
			 <ele>662</ele>
			<time>2017-11-11T05:30:32Z</time>
			</trkpt>
		
			<trkpt lat="44.595980" lon="8.122720">
			 <ele>661</ele>
			<time>2017-11-11T05:32:32Z</time>
			</trkpt>
		
			<trkpt lat="44.595940" lon="8.122670">
			 <ele>661</ele>
			<time>2017-11-11T05:34:32Z</time>
			</trkpt>
		
			<trkpt lat="44.595920" lon="8.122630">
			 <ele>661</ele>
			<time>2017-11-11T05:36:32Z</time>
			</trkpt>
		
			<trkpt lat="44.595920" lon="8.122570">
			 <ele>662</ele>
			<time>2017-11-11T05:38:32Z</time>
			</trkpt>
		
			<trkpt lat="44.595930" lon="8.122530">
			 <ele>662</ele>
			<time>2017-11-11T05:40:32Z</time>
			</trkpt>
		
			<trkpt lat="44.595940" lon="8.122490">
			 <ele>663</ele>
			<time>2017-11-11T05:42:32Z</time>
			</trkpt>
		
			<trkpt lat="44.595990" lon="8.122420">
			 <ele>663</ele>
			<time>2017-11-11T05:44:32Z</time>
			</trkpt>
		
			<trkpt lat="44.596280" lon="8.122050">
			 <ele>667</ele>
			<time>2017-11-11T05:46:32Z</time>
			</trkpt>
		
			<trkpt lat="44.596380" lon="8.121890">
			 <ele>668</ele>
			<time>2017-11-11T05:48:32Z</time>
			</trkpt>
		
			<trkpt lat="44.596410" lon="8.121800">
			 <ele>669</ele>
			<time>2017-11-11T05:50:32Z</time>
			</trkpt>
		
			<trkpt lat="44.596440" lon="8.121610">
			 <ele>668</ele>
			<time>2017-11-11T05:52:32Z</time>
			</trkpt>
		
			<trkpt lat="44.596430" lon="8.121540">
			 <ele>667</ele>
			<time>2017-11-11T05:54:32Z</time>
			</trkpt>
		
			<trkpt lat="44.596450" lon="8.121500">
			 <ele>667</ele>
			<time>2017-11-11T05:56:32Z</time>
			</trkpt>
		
			<trkpt lat="44.596470" lon="8.121460">
			 <ele>667</ele>
			<time>2017-11-11T05:58:32Z</time>
			</trkpt>
		
			<trkpt lat="44.596510" lon="8.121420">
			 <ele>668</ele>
			<time>2017-11-11T06:00:32Z</time>
			</trkpt>
		
			<trkpt lat="44.596680" lon="8.121330">
			 <ele>671</ele>
			<time>2017-11-11T06:02:32Z</time>
			</trkpt>
		
			<trkpt lat="44.596780" lon="8.121290">
			 <ele>670</ele>
			<time>2017-11-11T06:04:32Z</time>
			</trkpt>
		
			<trkpt lat="44.596850" lon="8.121240">
			 <ele>669</ele>
			<time>2017-11-11T06:06:32Z</time>
			</trkpt>
		
			<trkpt lat="44.596930" lon="8.121160">
			 <ele>669</ele>
			<time>2017-11-11T06:08:32Z</time>
			</trkpt>
		
			<trkpt lat="44.597000" lon="8.121110">
			 <ele>668</ele>
			<time>2017-11-11T06:10:32Z</time>
			</trkpt>
		
			<trkpt lat="44.597080" lon="8.121080">
			 <ele>668</ele>
			<time>2017-11-11T06:12:32Z</time>
			</trkpt>
		
			<trkpt lat="44.597170" lon="8.121050">
			 <ele>668</ele>
			<time>2017-11-11T06:14:32Z</time>
			</trkpt>
		
			<trkpt lat="44.597240" lon="8.121030">
			 <ele>668</ele>
			<time>2017-11-11T06:16:32Z</time>
			</trkpt>
		
			<trkpt lat="44.597310" lon="8.121000">
			 <ele>668</ele>
			<time>2017-11-11T06:18:32Z</time>
			</trkpt>
		
			<trkpt lat="44.597440" lon="8.120900">
			 <ele>669</ele>
			<time>2017-11-11T06:20:32Z</time>
			</trkpt>
		
			<trkpt lat="44.597660" lon="8.120690">
			 <ele>669</ele>
			<time>2017-11-11T06:22:32Z</time>
			</trkpt>
		
			<trkpt lat="44.597890" lon="8.120470">
			 <ele>670</ele>
			<time>2017-11-11T06:24:32Z</time>
			</trkpt>
		
			<trkpt lat="44.598020" lon="8.120330">
			 <ele>672</ele>
			<time>2017-11-11T06:26:32Z</time>
			</trkpt>
		
			<trkpt lat="44.598140" lon="8.120170">
			 <ele>675</ele>
			<time>2017-11-11T06:28:32Z</time>
			</trkpt>
		
			<trkpt lat="44.598280" lon="8.119910">
			 <ele>680</ele>
			<time>2017-11-11T06:30:32Z</time>
			</trkpt>
		
			<trkpt lat="44.598410" lon="8.119630">
			 <ele>684</ele>
			<time>2017-11-11T06:32:32Z</time>
			</trkpt>
		
			<trkpt lat="44.598490" lon="8.119430">
			 <ele>687</ele>
			<time>2017-11-11T06:34:32Z</time>
			</trkpt>
		
			<trkpt lat="44.598510" lon="8.119300">
			 <ele>689</ele>
			<time>2017-11-11T06:36:32Z</time>
			</trkpt>
		
			<trkpt lat="44.598530" lon="8.119130">
			 <ele>691</ele>
			<time>2017-11-11T06:38:32Z</time>
			</trkpt>
		
			<trkpt lat="44.598530" lon="8.119000">
			 <ele>693</ele>
			<time>2017-11-11T06:40:32Z</time>
			</trkpt>
		
			<trkpt lat="44.598520" lon="8.118920">
			 <ele>693</ele>
			<time>2017-11-11T06:42:32Z</time>
			</trkpt>
		
			<trkpt lat="44.598490" lon="8.118840">
			 <ele>694</ele>
			<time>2017-11-11T06:44:32Z</time>
			</trkpt>
		
			<trkpt lat="44.598290" lon="8.118470">
			 <ele>695</ele>
			<time>2017-11-11T06:46:32Z</time>
			</trkpt>
		
			<trkpt lat="44.598250" lon="8.118370">
			 <ele>695</ele>
			<time>2017-11-11T06:48:32Z</time>
			</trkpt>
		
			<trkpt lat="44.598230" lon="8.118270">
			 <ele>694</ele>
			<time>2017-11-11T06:50:32Z</time>
			</trkpt>
		
			<trkpt lat="44.598240" lon="8.118200">
			 <ele>694</ele>
			<time>2017-11-11T06:52:32Z</time>
			</trkpt>
		
			<trkpt lat="44.598250" lon="8.118120">
			 <ele>694</ele>
			<time>2017-11-11T06:54:32Z</time>
			</trkpt>
		
			<trkpt lat="44.598280" lon="8.118010">
			 <ele>695</ele>
			<time>2017-11-11T06:56:32Z</time>
			</trkpt>
		
			<trkpt lat="44.598420" lon="8.117660">
			 <ele>695</ele>
			<time>2017-11-11T06:58:32Z</time>
			</trkpt>
		
			<trkpt lat="44.598670" lon="8.117180">
			 <ele>694</ele>
			<time>2017-11-11T07:00:32Z</time>
			</trkpt>
		
			<trkpt lat="44.598710" lon="8.117080">
			 <ele>694</ele>
			<time>2017-11-11T07:02:32Z</time>
			</trkpt>
		
			<trkpt lat="44.598710" lon="8.116980">
			 <ele>694</ele>
			<time>2017-11-11T07:04:32Z</time>
			</trkpt>
		
			<trkpt lat="44.598710" lon="8.116930">
			 <ele>694</ele>
			<time>2017-11-11T07:06:32Z</time>
			</trkpt>
		
			<trkpt lat="44.598700" lon="8.116760">
			 <ele>695</ele>
			<time>2017-11-11T07:08:32Z</time>
			</trkpt>
		
			<trkpt lat="44.598670" lon="8.116490">
			 <ele>696</ele>
			<time>2017-11-11T07:10:32Z</time>
			</trkpt>
		
			<trkpt lat="44.598600" lon="8.116080">
			 <ele>701</ele>
			<time>2017-11-11T07:12:32Z</time>
			</trkpt>
		
			<trkpt lat="44.598580" lon="8.115870">
			 <ele>704</ele>
			<time>2017-11-11T07:14:32Z</time>
			</trkpt>
		
			<trkpt lat="44.598570" lon="8.115730">
			 <ele>705</ele>
			<time>2017-11-11T07:16:32Z</time>
			</trkpt>
		
			<trkpt lat="44.598570" lon="8.115650">
			 <ele>706</ele>
			<time>2017-11-11T07:18:32Z</time>
			</trkpt>
		
			<trkpt lat="44.598570" lon="8.115610">
			 <ele>706</ele>
			<time>2017-11-11T07:20:32Z</time>
			</trkpt>
		
			<trkpt lat="44.598580" lon="8.115470">
			 <ele>708</ele>
			<time>2017-11-11T07:22:32Z</time>
			</trkpt>
		
			<trkpt lat="44.598610" lon="8.115220">
			 <ele>709</ele>
			<time>2017-11-11T07:24:32Z</time>
			</trkpt>
		
			<trkpt lat="44.598630" lon="8.115120">
			 <ele>710</ele>
			<time>2017-11-11T07:26:32Z</time>
			</trkpt>
		
			<trkpt lat="44.598660" lon="8.115060">
			 <ele>709</ele>
			<time>2017-11-11T07:28:32Z</time>
			</trkpt>
		
			<trkpt lat="44.598700" lon="8.115000">
			 <ele>708</ele>
			<time>2017-11-11T07:30:32Z</time>
			</trkpt>
		
			<trkpt lat="44.598850" lon="8.114950">
			 <ele>703</ele>
			<time>2017-11-11T07:32:32Z</time>
			</trkpt>
		
			<trkpt lat="44.598940" lon="8.114900">
			 <ele>700</ele>
			<time>2017-11-11T07:34:32Z</time>
			</trkpt>
		
			<trkpt lat="44.598980" lon="8.114860">
			 <ele>699</ele>
			<time>2017-11-11T07:36:32Z</time>
			</trkpt>
		
			<trkpt lat="44.599010" lon="8.114820">
			 <ele>698</ele>
			<time>2017-11-11T07:38:32Z</time>
			</trkpt>
		
			<trkpt lat="44.599040" lon="8.114750">
			 <ele>697</ele>
			<time>2017-11-11T07:40:32Z</time>
			</trkpt>
		
			<trkpt lat="44.599070" lon="8.114650">
			 <ele>697</ele>
			<time>2017-11-11T07:42:32Z</time>
			</trkpt>
		
			<trkpt lat="44.599070" lon="8.114560">
			 <ele>697</ele>
			<time>2017-11-11T07:44:32Z</time>
			</trkpt>
		
			<trkpt lat="44.599050" lon="8.114250">
			 <ele>699</ele>
			<time>2017-11-11T07:46:32Z</time>
			</trkpt>
		
			<trkpt lat="44.599040" lon="8.114150">
			 <ele>699</ele>
			<time>2017-11-11T07:48:32Z</time>
			</trkpt>
		
			<trkpt lat="44.598990" lon="8.113970">
			 <ele>700</ele>
			<time>2017-11-11T07:50:32Z</time>
			</trkpt>
		
			<trkpt lat="44.598840" lon="8.113400">
			 <ele>703</ele>
			<time>2017-11-11T07:52:32Z</time>
			</trkpt>
		
			<trkpt lat="44.598830" lon="8.113340">
			 <ele>703</ele>
			<time>2017-11-11T07:54:32Z</time>
			</trkpt>
		
			<trkpt lat="44.598830" lon="8.113310">
			 <ele>703</ele>
			<time>2017-11-11T07:56:32Z</time>
			</trkpt>
		
			<trkpt lat="44.598830" lon="8.113280">
			 <ele>703</ele>
			<time>2017-11-11T07:58:32Z</time>
			</trkpt>
		
			<trkpt lat="44.598830" lon="8.113250">
			 <ele>703</ele>
			<time>2017-11-11T08:00:32Z</time>
			</trkpt>
		
			<trkpt lat="44.598840" lon="8.113210">
			 <ele>703</ele>
			<time>2017-11-11T08:02:32Z</time>
			</trkpt>
		
			<trkpt lat="44.598860" lon="8.113170">
			 <ele>703</ele>
			<time>2017-11-11T08:04:32Z</time>
			</trkpt>
		
			<trkpt lat="44.598890" lon="8.113110">
			 <ele>702</ele>
			<time>2017-11-11T08:06:32Z</time>
			</trkpt>
		
			<trkpt lat="44.599090" lon="8.112840">
			 <ele>698</ele>
			<time>2017-11-11T08:08:32Z</time>
			</trkpt>
		
			<trkpt lat="44.599260" lon="8.112610">
			 <ele>694</ele>
			<time>2017-11-11T08:10:32Z</time>
			</trkpt>
		
			<trkpt lat="44.599320" lon="8.112490">
			 <ele>693</ele>
			<time>2017-11-11T08:12:32Z</time>
			</trkpt>
		
			<trkpt lat="44.599370" lon="8.112350">
			 <ele>692</ele>
			<time>2017-11-11T08:14:32Z</time>
			</trkpt>
		
			<trkpt lat="44.599420" lon="8.112240">
			 <ele>691</ele>
			<time>2017-11-11T08:16:32Z</time>
			</trkpt>
		
			<trkpt lat="44.599450" lon="8.112100">
			 <ele>692</ele>
			<time>2017-11-11T08:18:32Z</time>
			</trkpt>
		
			<trkpt lat="44.599490" lon="8.111880">
			 <ele>692</ele>
			<time>2017-11-11T08:20:32Z</time>
			</trkpt>
		
			<trkpt lat="44.599520" lon="8.111420">
			 <ele>695</ele>
			<time>2017-11-11T08:22:32Z</time>
			</trkpt>
		
			<trkpt lat="44.599520" lon="8.111180">
			 <ele>696</ele>
			<time>2017-11-11T08:24:32Z</time>
			</trkpt>
		
			<trkpt lat="44.599530" lon="8.111020">
			 <ele>697</ele>
			<time>2017-11-11T08:26:32Z</time>
			</trkpt>
		
			<trkpt lat="44.599560" lon="8.110870">
			 <ele>697</ele>
			<time>2017-11-11T08:28:32Z</time>
			</trkpt>
		
			<trkpt lat="44.599630" lon="8.110570">
			 <ele>696</ele>
			<time>2017-11-11T08:30:32Z</time>
			</trkpt>
		
			<trkpt lat="44.599700" lon="8.110310">
			 <ele>695</ele>
			<time>2017-11-11T08:32:32Z</time>
			</trkpt>
		
			<trkpt lat="44.599800" lon="8.109880">
			 <ele>694</ele>
			<time>2017-11-11T08:34:32Z</time>
			</trkpt>
		
			<trkpt lat="44.599900" lon="8.109270">
			 <ele>692</ele>
			<time>2017-11-11T08:36:32Z</time>
			</trkpt>
		
			<trkpt lat="44.599940" lon="8.108840">
			 <ele>692</ele>
			<time>2017-11-11T08:38:32Z</time>
			</trkpt>
		
			<trkpt lat="44.599950" lon="8.108210">
			 <ele>690</ele>
			<time>2017-11-11T08:40:32Z</time>
			</trkpt>
		
			<trkpt lat="44.599950" lon="8.108000">
			 <ele>689</ele>
			<time>2017-11-11T08:42:32Z</time>
			</trkpt>
		
			<trkpt lat="44.599940" lon="8.107920">
			 <ele>688</ele>
			<time>2017-11-11T08:44:32Z</time>
			</trkpt>
		
			<trkpt lat="44.599860" lon="8.107640">
			 <ele>686</ele>
			<time>2017-11-11T08:46:32Z</time>
			</trkpt>
		
			<trkpt lat="44.599830" lon="8.107530">
			 <ele>685</ele>
			<time>2017-11-11T08:48:32Z</time>
			</trkpt>
		
			<trkpt lat="44.599820" lon="8.107430">
			 <ele>684</ele>
			<time>2017-11-11T08:50:32Z</time>
			</trkpt>
		
			<trkpt lat="44.599820" lon="8.107320">
			 <ele>683</ele>
			<time>2017-11-11T08:52:32Z</time>
			</trkpt>
		
			<trkpt lat="44.599840" lon="8.107200">
			 <ele>683</ele>
			<time>2017-11-11T08:54:32Z</time>
			</trkpt>
		
			<trkpt lat="44.599870" lon="8.107020">
			 <ele>682</ele>
			<time>2017-11-11T08:56:32Z</time>
			</trkpt>
		
			<trkpt lat="44.599900" lon="8.106860">
			 <ele>681</ele>
			<time>2017-11-11T08:58:32Z</time>
			</trkpt>
		
			<trkpt lat="44.600010" lon="8.106230">
			 <ele>681</ele>
			<time>2017-11-11T09:00:32Z</time>
			</trkpt>
		
			<trkpt lat="44.600100" lon="8.105610">
			 <ele>681</ele>
			<time>2017-11-11T09:02:32Z</time>
			</trkpt>
		
			<trkpt lat="44.600260" lon="8.104820">
			 <ele>681</ele>
			<time>2017-11-11T09:04:32Z</time>
			</trkpt>
		
			<trkpt lat="44.600320" lon="8.104540">
			 <ele>681</ele>
			<time>2017-11-11T09:06:32Z</time>
			</trkpt>
		
			<trkpt lat="44.600360" lon="8.104350">
			 <ele>682</ele>
			<time>2017-11-11T09:08:32Z</time>
			</trkpt>
		
			<trkpt lat="44.600360" lon="8.104340">
			 <ele>682</ele>
			<time>2017-11-11T09:10:32Z</time>
			</trkpt>
		
			<trkpt lat="44.600420" lon="8.104160">
			 <ele>684</ele>
			<time>2017-11-11T09:12:32Z</time>
			</trkpt>
		
			<trkpt lat="44.600510" lon="8.103960">
			 <ele>685</ele>
			<time>2017-11-11T09:14:32Z</time>
			</trkpt>
		
			<trkpt lat="44.600640" lon="8.103690">
			 <ele>687</ele>
			<time>2017-11-11T09:16:32Z</time>
			</trkpt>
		
			<trkpt lat="44.600660" lon="8.103660">
			 <ele>688</ele>
			<time>2017-11-11T09:18:32Z</time>
			</trkpt>
		
			<trkpt lat="44.600780" lon="8.103360">
			 <ele>692</ele>
			<time>2017-11-11T09:20:32Z</time>
			</trkpt>
		
			<trkpt lat="44.600880" lon="8.103120">
			 <ele>694</ele>
			<time>2017-11-11T09:22:32Z</time>
			</trkpt>
		
			<trkpt lat="44.600920" lon="8.102900">
			 <ele>695</ele>
			<time>2017-11-11T09:24:32Z</time>
			</trkpt>
		
			<trkpt lat="44.600960" lon="8.102540">
			 <ele>696</ele>
			<time>2017-11-11T09:26:32Z</time>
			</trkpt>
		
			<trkpt lat="44.600980" lon="8.102030">
			 <ele>696</ele>
			<time>2017-11-11T09:28:32Z</time>
			</trkpt>
		
			<trkpt lat="44.601010" lon="8.101600">
			 <ele>696</ele>
			<time>2017-11-11T09:30:32Z</time>
			</trkpt>
		
			<trkpt lat="44.601030" lon="8.101390">
			 <ele>696</ele>
			<time>2017-11-11T09:32:32Z</time>
			</trkpt>
		
			<trkpt lat="44.601070" lon="8.101230">
			 <ele>695</ele>
			<time>2017-11-11T09:34:32Z</time>
			</trkpt>
		
			<trkpt lat="44.601120" lon="8.101070">
			 <ele>695</ele>
			<time>2017-11-11T09:36:32Z</time>
			</trkpt>
		
			<trkpt lat="44.601240" lon="8.100820">
			 <ele>695</ele>
			<time>2017-11-11T09:38:32Z</time>
			</trkpt>
		
			<trkpt lat="44.601310" lon="8.100660">
			 <ele>696</ele>
			<time>2017-11-11T09:40:32Z</time>
			</trkpt>
		
			<trkpt lat="44.601330" lon="8.100650">
			 <ele>696</ele>
			<time>2017-11-11T09:42:32Z</time>
			</trkpt>
		
			<trkpt lat="44.601360" lon="8.100630">
			 <ele>696</ele>
			<time>2017-11-11T09:44:32Z</time>
			</trkpt>
		
			<trkpt lat="44.601410" lon="8.100570">
			 <ele>697</ele>
			<time>2017-11-11T09:46:32Z</time>
			</trkpt>
		
			<trkpt lat="44.601420" lon="8.100560">
			 <ele>697</ele>
			<time>2017-11-11T09:48:32Z</time>
			</trkpt>
		
			<trkpt lat="44.601930" lon="8.100000">
			 <ele>703</ele>
			<time>2017-11-11T09:50:32Z</time>
			</trkpt>
		
			<trkpt lat="44.602070" lon="8.099880">
			 <ele>703</ele>
			<time>2017-11-11T09:52:32Z</time>
			</trkpt>
		
			<trkpt lat="44.602190" lon="8.099790">
			 <ele>702</ele>
			<time>2017-11-11T09:54:32Z</time>
			</trkpt>
		
			<trkpt lat="44.602420" lon="8.099640">
			 <ele>702</ele>
			<time>2017-11-11T09:56:32Z</time>
			</trkpt>
		
			<trkpt lat="44.602520" lon="8.099580">
			 <ele>702</ele>
			<time>2017-11-11T09:58:32Z</time>
			</trkpt>
		
			<trkpt lat="44.602540" lon="8.099550">
			 <ele>702</ele>
			<time>2017-11-11T10:00:32Z</time>
			</trkpt>
		
			<trkpt lat="44.602570" lon="8.099520">
			 <ele>702</ele>
			<time>2017-11-11T10:02:32Z</time>
			</trkpt>
		
			<trkpt lat="44.602590" lon="8.099480">
			 <ele>702</ele>
			<time>2017-11-11T10:04:32Z</time>
			</trkpt>
		
			<trkpt lat="44.602610" lon="8.099420">
			 <ele>703</ele>
			<time>2017-11-11T10:06:32Z</time>
			</trkpt>
		
			<trkpt lat="44.602730" lon="8.099050">
			 <ele>707</ele>
			<time>2017-11-11T10:08:32Z</time>
			</trkpt>
		
			<trkpt lat="44.602780" lon="8.098900">
			 <ele>708</ele>
			<time>2017-11-11T10:10:32Z</time>
			</trkpt>
		
			<trkpt lat="44.602780" lon="8.098900">
			 <ele>708</ele>
			<time>2017-11-11T10:12:32Z</time>
			</trkpt>
		
			<trkpt lat="44.602800" lon="8.098860">
			 <ele>708</ele>
			<time>2017-11-11T10:14:32Z</time>
			</trkpt>
		
			<trkpt lat="44.602810" lon="8.098830">
			 <ele>709</ele>
			<time>2017-11-11T10:16:32Z</time>
			</trkpt>
		
			<trkpt lat="44.603060" lon="8.098500">
			 <ele>709</ele>
			<time>2017-11-11T10:18:32Z</time>
			</trkpt>
		
			<trkpt lat="44.603520" lon="8.097840">
			 <ele>710</ele>
			<time>2017-11-11T10:20:32Z</time>
			</trkpt>
		
			<trkpt lat="44.603610" lon="8.097730">
			 <ele>711</ele>
			<time>2017-11-11T10:22:32Z</time>
			</trkpt>
		
			<trkpt lat="44.603740" lon="8.097630">
			 <ele>712</ele>
			<time>2017-11-11T10:24:32Z</time>
			</trkpt>
		
			<trkpt lat="44.603750" lon="8.097620">
			 <ele>712</ele>
			<time>2017-11-11T10:26:32Z</time>
			</trkpt>
		
				</trkseg>
			   </trk>
			 </gpx>
	